sensor_id;sensor_type;location;lat;lon;timestamp;P1;durP1;ratioP1;P2;durP2;ratioP2
53309;SDS011;39197;53.200;5.792;2023-05-10T00:02:02;15.48;;;13.95;;
53309;SDS011;39197;53.200;5.792;2023-05-10T00:04:28;14.15;;;13.02;;
53309;SDS011;39197;53.200;5.792;2023-05-10T00:06:54;13.90;;;12.82;;
53309;SDS011;39197;53.200;5.792;2023-05-10T00:09:19;11.30;;;10.35;;
53309;SDS011;39197;53.200;5.792;2023-05-10T00:11:45;21.20;;;18.02;;
53309;SDS011;39197;53.200;5.792;2023-05-10T00:14:11;17.45;;;15.85;;
53309;SDS011;39197;53.200;5.792;2023-05-10T00:16:36;15.30;;;13.80;;
53309;SDS011;39197;53.200;5.792;2023-05-10T00:19:02;15.30;;;13.70;;
53309;SDS011;39197;53.200;5.792;2023-05-10T00:21:28;14.35;;;12.90;;
53309;SDS011;39197;53.200;5.792;2023-05-10T00:23:53;12.60;;;11.52;;
53309;SDS011;39197;53.200;5.792;2023-05-10T00:26:19;13.15;;;11.85;;
53309;SDS011;39197;53.200;5.792;2023-05-10T00:28:45;11.60;;;10.52;;
53309;SDS011;39197;53.200;5.792;2023-05-10T00:31:11;7.50;;;6.80;;
53309;SDS011;39197;53.200;5.792;2023-05-10T00:33:36;7.93;;;7.13;;
53309;SDS011;39197;53.200;5.792;2023-05-10T00:36:02;6.50;;;6.10;;
53309;SDS011;39197;53.200;5.792;2023-05-10T00:38:27;5.47;;;5.05;;
53309;SDS011;39197;53.200;5.792;2023-05-10T00:40:53;10.55;;;8.05;;
53309;SDS011;39197;53.200;5.792;2023-05-10T00:43:19;18.10;;;11.30;;
53309;SDS011;39197;53.200;5.792;2023-05-10T00:45:44;17.50;;;12.27;;
53309;SDS011;39197;53.200;5.792;2023-05-10T00:48:10;23.13;;;14.98;;
53309;SDS011;39197;53.200;5.792;2023-05-10T00:50:36;32.47;;;19.95;;
53309;SDS011;39197;53.200;5.792;2023-05-10T00:53:02;27.17;;;21.20;;
53309;SDS011;39197;53.200;5.792;2023-05-10T00:55:28;42.35;;;27.30;;
53309;SDS011;39197;53.200;5.792;2023-05-10T00:57:54;50.72;;;27.70;;
53309;SDS011;39197;53.200;5.792;2023-05-10T01:00:20;70.28;;;33.95;;
53309;SDS011;39197;53.200;5.792;2023-05-10T01:02:46;73.28;;;31.30;;
53309;SDS011;39197;53.200;5.792;2023-05-10T01:05:12;57.67;;;26.20;;
53309;SDS011;39197;53.200;5.792;2023-05-10T01:07:38;107.80;;;41.90;;
53309;SDS011;39197;53.200;5.792;2023-05-10T01:10:07;77.40;;;31.48;;
53309;SDS011;39197;53.200;5.792;2023-05-10T01:12:35;94.88;;;40.55;;
53309;SDS011;39197;53.200;5.792;2023-05-10T01:15:03;68.75;;;33.05;;
53309;SDS011;39197;53.200;5.792;2023-05-10T01:17:30;63.25;;;33.65;;
53309;SDS011;39197;53.200;5.792;2023-05-10T01:19:57;59.70;;;33.47;;
53309;SDS011;39197;53.200;5.792;2023-05-10T01:27:53;91.00;;;34.67;;
53309;SDS011;39197;53.200;5.792;2023-05-10T01:33:41;80.55;;;26.38;;
53309;SDS011;39197;53.200;5.792;2023-05-10T01:36:13;78.43;;;27.67;;
53309;SDS011;39197;53.200;5.792;2023-05-10T01:44:01;79.95;;;34.50;;
53309;SDS011;39197;53.200;5.792;2023-05-10T01:46:52;65.18;;;27.88;;
53309;SDS011;39197;53.200;5.792;2023-05-10T01:49:32;71.03;;;35.60;;
53309;SDS011;39197;53.200;5.792;2023-05-10T01:52:09;62.85;;;31.88;;
53309;SDS011;39197;53.200;5.792;2023-05-10T01:54:41;50.55;;;30.42;;
53309;SDS011;39197;53.200;5.792;2023-05-10T01:57:11;36.20;;;26.08;;
53309;SDS011;39197;53.200;5.792;2023-05-10T01:59:39;38.58;;;27.33;;
53309;SDS011;39197;53.200;5.792;2023-05-10T02:02:07;27.50;;;19.45;;
53309;SDS011;39197;53.200;5.792;2023-05-10T02:04:38;28.77;;;21.55;;
53309;SDS011;39197;53.200;5.792;2023-05-10T02:07:05;20.85;;;18.65;;
53309;SDS011;39197;53.200;5.792;2023-05-10T02:09:33;20.40;;;17.83;;
53309;SDS011;39197;53.200;5.792;2023-05-10T02:12:00;17.08;;;15.38;;
53309;SDS011;39197;53.200;5.792;2023-05-10T02:14:28;21.15;;;19.05;;
53309;SDS011;39197;53.200;5.792;2023-05-10T02:16:59;19.05;;;16.30;;
53309;SDS011;39197;53.200;5.792;2023-05-10T02:19:27;16.42;;;14.82;;
53309;SDS011;39197;53.200;5.792;2023-05-10T02:21:55;18.75;;;14.23;;
53309;SDS011;39197;53.200;5.792;2023-05-10T02:24:21;13.75;;;12.20;;
53309;SDS011;39197;53.200;5.792;2023-05-10T02:26:49;14.15;;;12.38;;
53309;SDS011;39197;53.200;5.792;2023-05-10T02:29:18;14.00;;;11.75;;
53309;SDS011;39197;53.200;5.792;2023-05-10T02:31:45;12.07;;;9.30;;
53309;SDS011;39197;53.200;5.792;2023-05-10T02:34:11;6.00;;;5.32;;
53309;SDS011;39197;53.200;5.792;2023-05-10T02:36:38;4.78;;;3.70;;
53309;SDS011;39197;53.200;5.792;2023-05-10T02:39:05;4.82;;;3.05;;
53309;SDS011;39197;53.200;5.792;2023-05-10T02:41:35;3.53;;;2.05;;
53309;SDS011;39197;53.200;5.792;2023-05-10T02:44:02;3.20;;;2.50;;
53309;SDS011;39197;53.200;5.792;2023-05-10T02:46:30;4.22;;;2.30;;
53309;SDS011;39197;53.200;5.792;2023-05-10T02:48:56;4.30;;;3.30;;
53309;SDS011;39197;53.200;5.792;2023-05-10T02:51:24;2.72;;;2.22;;
53309;SDS011;39197;53.200;5.792;2023-05-10T02:53:53;2.47;;;2.13;;
53309;SDS011;39197;53.200;5.792;2023-05-10T02:56:25;4.15;;;2.00;;
53309;SDS011;39197;53.200;5.792;2023-05-10T02:58:56;3.40;;;2.22;;
53309;SDS011;39197;53.200;5.792;2023-05-10T03:01:22;2.65;;;2.10;;
53309;SDS011;39197;53.200;5.792;2023-05-10T03:03:48;1.75;;;1.65;;
53309;SDS011;39197;53.200;5.792;2023-05-10T03:06:14;1.80;;;1.60;;
53309;SDS011;39197;53.200;5.792;2023-05-10T03:08:41;1.85;;;1.75;;
53309;SDS011;39197;53.200;5.792;2023-05-10T03:14:08;1.75;;;1.65;;
53309;SDS011;39197;53.200;5.792;2023-05-10T03:16:42;1.95;;;1.85;;
53309;SDS011;39197;53.200;5.792;2023-05-10T03:19:15;2.20;;;2.00;;
53309;SDS011;39197;53.200;5.792;2023-05-10T03:22:03;1.88;;;1.77;;
53309;SDS011;39197;53.200;5.792;2023-05-10T03:24:35;3.10;;;2.47;;
53309;SDS011;39197;53.200;5.792;2023-05-10T03:27:01;2.45;;;2.35;;
53309;SDS011;39197;53.200;5.792;2023-05-10T03:29:29;2.92;;;2.72;;
53309;SDS011;39197;53.200;5.792;2023-05-10T03:31:57;2.13;;;1.95;;
53309;SDS011;39197;53.200;5.792;2023-05-10T03:34:24;1.88;;;1.77;;
53309;SDS011;39197;53.200;5.792;2023-05-10T03:36:50;2.72;;;2.53;;
53309;SDS011;39197;53.200;5.792;2023-05-10T03:39:16;2.92;;;2.75;;
53309;SDS011;39197;53.200;5.792;2023-05-10T03:41:41;3.22;;;3.03;;
53309;SDS011;39197;53.200;5.792;2023-05-10T03:44:07;3.20;;;3.00;;
53309;SDS011;39197;53.200;5.792;2023-05-10T03:46:33;3.60;;;3.33;;
53309;SDS011;39197;53.200;5.792;2023-05-10T03:48:58;4.43;;;4.13;;
53309;SDS011;39197;53.200;5.792;2023-05-10T03:51:24;3.00;;;2.80;;
53309;SDS011;39197;53.200;5.792;2023-05-10T03:53:53;1.98;;;1.88;;
53309;SDS011;39197;53.200;5.792;2023-05-10T03:56:19;2.00;;;1.88;;
53309;SDS011;39197;53.200;5.792;2023-05-10T03:58:45;1.45;;;1.35;;
53309;SDS011;39197;53.200;5.792;2023-05-10T04:01:11;2.42;;;2.33;;
53309;SDS011;39197;53.200;5.792;2023-05-10T04:03:37;1.92;;;1.83;;
53309;SDS011;39197;53.200;5.792;2023-05-10T04:06:03;1.60;;;1.50;;
53309;SDS011;39197;53.200;5.792;2023-05-10T04:08:30;1.92;;;1.83;;
53309;SDS011;39197;53.200;5.792;2023-05-10T04:11:08;2.70;;;2.00;;
53309;SDS011;39197;53.200;5.792;2023-05-10T04:13:36;2.45;;;2.25;;
53309;SDS011;39197;53.200;5.792;2023-05-10T04:16:02;2.40;;;2.28;;
53309;SDS011;39197;53.200;5.792;2023-05-10T04:18:28;3.63;;;2.90;;
53309;SDS011;39197;53.200;5.792;2023-05-10T04:20:53;3.17;;;2.97;;
53309;SDS011;39197;53.200;5.792;2023-05-10T04:23:19;3.22;;;3.03;;
53309;SDS011;39197;53.200;5.792;2023-05-10T04:25:44;3.40;;;3.20;;
53309;SDS011;39197;53.200;5.792;2023-05-10T04:28:10;3.45;;;3.25;;
53309;SDS011;39197;53.200;5.792;2023-05-10T04:30:36;3.50;;;3.25;;
53309;SDS011;39197;53.200;5.792;2023-05-10T04:33:01;3.83;;;3.63;;
53309;SDS011;39197;53.200;5.792;2023-05-10T04:35:27;4.00;;;3.70;;
53309;SDS011;39197;53.200;5.792;2023-05-10T04:37:53;3.40;;;3.20;;
53309;SDS011;39197;53.200;5.792;2023-05-10T04:40:19;4.07;;;3.70;;
53309;SDS011;39197;53.200;5.792;2023-05-10T04:42:45;4.60;;;4.20;;
53309;SDS011;39197;53.200;5.792;2023-05-10T04:45:11;5.80;;;5.35;;
53309;SDS011;39197;53.200;5.792;2023-05-10T04:47:37;6.82;;;6.32;;
53309;SDS011;39197;53.200;5.792;2023-05-10T04:50:03;7.05;;;6.55;;
53309;SDS011;39197;53.200;5.792;2023-05-10T04:52:29;8.65;;;8.00;;
53309;SDS011;39197;53.200;5.792;2023-05-10T04:54:54;9.50;;;8.70;;
53309;SDS011;39197;53.200;5.792;2023-05-10T04:57:20;10.68;;;9.77;;
53309;SDS011;39197;53.200;5.792;2023-05-10T04:59:46;11.73;;;10.73;;
53309;SDS011;39197;53.200;5.792;2023-05-10T05:02:11;12.68;;;11.48;;
53309;SDS011;39197;53.200;5.792;2023-05-10T05:04:37;13.07;;;11.77;;
53309;SDS011;39197;53.200;5.792;2023-05-10T05:07:03;12.10;;;11.05;;
53309;SDS011;39197;53.200;5.792;2023-05-10T05:09:28;12.40;;;11.25;;
53309;SDS011;39197;53.200;5.792;2023-05-10T05:11:54;10.95;;;9.90;;
53309;SDS011;39197;53.200;5.792;2023-05-10T05:14:19;11.93;;;11.02;;
53309;SDS011;39197;53.200;5.792;2023-05-10T05:16:50;14.52;;;11.52;;
53309;SDS011;39197;53.200;5.792;2023-05-10T05:19:16;10.38;;;8.70;;
53309;SDS011;39197;53.200;5.792;2023-05-10T05:21:41;9.07;;;8.18;;
53309;SDS011;39197;53.200;5.792;2023-05-10T05:24:07;8.77;;;8.05;;
53309;SDS011;39197;53.200;5.792;2023-05-10T05:26:33;9.70;;;8.80;;
53309;SDS011;39197;53.200;5.792;2023-05-10T05:28:59;7.10;;;6.43;;
53309;SDS011;39197;53.200;5.792;2023-05-10T05:31:24;9.02;;;7.03;;
53309;SDS011;39197;53.200;5.792;2023-05-10T05:33:50;7.65;;;6.95;;
53309;SDS011;39197;53.200;5.792;2023-05-10T05:36:16;7.72;;;7.13;;
53309;SDS011;39197;53.200;5.792;2023-05-10T05:38:41;6.47;;;5.88;;
53309;SDS011;39197;53.200;5.792;2023-05-10T05:41:08;5.22;;;4.72;;
53309;SDS011;39197;53.200;5.792;2023-05-10T05:43:33;6.25;;;5.75;;
53309;SDS011;39197;53.200;5.792;2023-05-10T05:45:59;6.63;;;5.93;;
53309;SDS011;39197;53.200;5.792;2023-05-10T05:48:25;4.32;;;3.92;;
53309;SDS011;39197;53.200;5.792;2023-05-10T05:51:00;4.03;;;3.55;;
53309;SDS011;39197;53.200;5.792;2023-05-10T05:53:27;3.47;;;3.15;;
53309;SDS011;39197;53.200;5.792;2023-05-10T05:55:56;4.15;;;3.78;;
53309;SDS011;39197;53.200;5.792;2023-05-10T05:58:23;4.65;;;3.38;;
53309;SDS011;39197;53.200;5.792;2023-05-10T06:00:50;3.60;;;2.88;;
53309;SDS011;39197;53.200;5.792;2023-05-10T06:03:17;2.78;;;2.30;;
53309;SDS011;39197;53.200;5.792;2023-05-10T06:05:43;4.90;;;2.67;;
53309;SDS011;39197;53.200;5.792;2023-05-10T06:08:08;2.83;;;2.00;;
53309;SDS011;39197;53.200;5.792;2023-05-10T06:10:34;4.22;;;1.98;;
53309;SDS011;39197;53.200;5.792;2023-05-10T06:13:00;2.20;;;2.03;;
53309;SDS011;39197;53.200;5.792;2023-05-10T06:15:26;2.08;;;1.85;;
53309;SDS011;39197;53.200;5.792;2023-05-10T06:17:52;2.30;;;1.95;;
53309;SDS011;39197;53.200;5.792;2023-05-10T06:20:18;2.83;;;2.63;;
53309;SDS011;39197;53.200;5.792;2023-05-10T06:22:43;4.47;;;3.90;;
53309;SDS011;39197;53.200;5.792;2023-05-10T06:25:09;4.88;;;4.40;;
53309;SDS011;39197;53.200;5.792;2023-05-10T06:27:35;5.00;;;3.92;;
53309;SDS011;39197;53.200;5.792;2023-05-10T06:30:01;7.20;;;4.35;;
53309;SDS011;39197;53.200;5.792;2023-05-10T06:32:27;3.47;;;3.17;;
53309;SDS011;39197;53.200;5.792;2023-05-10T06:34:53;4.40;;;4.00;;
53309;SDS011;39197;53.200;5.792;2023-05-10T06:37:18;4.22;;;3.67;;
53309;SDS011;39197;53.200;5.792;2023-05-10T06:39:44;4.65;;;3.00;;
53309;SDS011;39197;53.200;5.792;2023-05-10T06:42:10;5.32;;;4.00;;
53309;SDS011;39197;53.200;5.792;2023-05-10T06:44:35;5.18;;;3.38;;
53309;SDS011;39197;53.200;5.792;2023-05-10T06:47:01;3.70;;;3.40;;
53309;SDS011;39197;53.200;5.792;2023-05-10T06:49:27;3.78;;;3.05;;
53309;SDS011;39197;53.200;5.792;2023-05-10T06:51:52;5.68;;;3.67;;
53309;SDS011;39197;53.200;5.792;2023-05-10T06:54:18;5.10;;;4.13;;
53309;SDS011;39197;53.200;5.792;2023-05-10T06:56:44;5.82;;;5.28;;
53309;SDS011;39197;53.200;5.792;2023-05-10T06:59:10;7.38;;;6.03;;
53309;SDS011;39197;53.200;5.792;2023-05-10T07:01:35;9.77;;;6.03;;
53309;SDS011;39197;53.200;5.792;2023-05-10T07:04:01;8.02;;;5.82;;
53309;SDS011;39197;53.200;5.792;2023-05-10T07:06:27;8.68;;;6.00;;
53309;SDS011;39197;53.200;5.792;2023-05-10T07:08:53;7.43;;;5.70;;
53309;SDS011;39197;53.200;5.792;2023-05-10T07:11:19;6.97;;;5.32;;
53309;SDS011;39197;53.200;5.792;2023-05-10T07:13:45;6.97;;;5.47;;
53309;SDS011;39197;53.200;5.792;2023-05-10T07:16:11;6.13;;;5.47;;
53309;SDS011;39197;53.200;5.792;2023-05-10T07:18:37;8.07;;;4.65;;
53309;SDS011;39197;53.200;5.792;2023-05-10T07:21:02;6.00;;;5.40;;
53309;SDS011;39197;53.200;5.792;2023-05-10T07:23:28;4.80;;;4.22;;
53309;SDS011;39197;53.200;5.792;2023-05-10T07:25:54;7.72;;;4.70;;
53309;SDS011;39197;53.200;5.792;2023-05-10T07:28:22;7.43;;;5.70;;
53309;SDS011;39197;53.200;5.792;2023-05-10T07:30:49;5.60;;;4.45;;
53309;SDS011;39197;53.200;5.792;2023-05-10T07:33:15;5.07;;;4.30;;
53309;SDS011;39197;53.200;5.792;2023-05-10T07:35:41;7.00;;;4.60;;
53309;SDS011;39197;53.200;5.792;2023-05-10T07:38:07;6.57;;;4.60;;
53309;SDS011;39197;53.200;5.792;2023-05-10T07:40:33;5.80;;;5.13;;
53309;SDS011;39197;53.200;5.792;2023-05-10T07:42:59;8.85;;;5.50;;
53309;SDS011;39197;53.200;5.792;2023-05-10T07:45:27;6.57;;;5.60;;
53309;SDS011;39197;53.200;5.792;2023-05-10T07:47:53;6.30;;;5.38;;
53309;SDS011;39197;53.200;5.792;2023-05-10T07:50:19;5.70;;;5.20;;
53309;SDS011;39197;53.200;5.792;2023-05-10T07:52:46;6.82;;;6.00;;
53309;SDS011;39197;53.200;5.792;2023-05-10T07:55:11;6.93;;;6.32;;
53309;SDS011;39197;53.200;5.792;2023-05-10T07:57:37;6.10;;;5.60;;
53309;SDS011;39197;53.200;5.792;2023-05-10T08:00:04;6.60;;;5.82;;
53309;SDS011;39197;53.200;5.792;2023-05-10T08:02:30;6.65;;;5.97;;
53309;SDS011;39197;53.200;5.792;2023-05-10T08:04:55;7.05;;;5.53;;
53309;SDS011;39197;53.200;5.792;2023-05-10T08:07:22;10.07;;;6.47;;
53309;SDS011;39197;53.200;5.792;2023-05-10T08:09:49;6.03;;;5.43;;
53309;SDS011;39197;53.200;5.792;2023-05-10T08:12:14;6.72;;;5.70;;
53309;SDS011;39197;53.200;5.792;2023-05-10T08:14:40;6.65;;;5.80;;
53309;SDS011;39197;53.200;5.792;2023-05-10T08:17:06;5.32;;;4.82;;
53309;SDS011;39197;53.200;5.792;2023-05-10T08:19:32;7.03;;;5.88;;
53309;SDS011;39197;53.200;5.792;2023-05-10T08:21:57;5.82;;;5.20;;
53309;SDS011;39197;53.200;5.792;2023-05-10T08:24:23;5.88;;;4.80;;
53309;SDS011;39197;53.200;5.792;2023-05-10T08:26:48;6.10;;;5.18;;
53309;SDS011;39197;53.200;5.792;2023-05-10T08:29:14;6.18;;;5.57;;
53309;SDS011;39197;53.200;5.792;2023-05-10T08:31:40;6.00;;;5.28;;
53309;SDS011;39197;53.200;5.792;2023-05-10T08:34:06;8.80;;;5.18;;
53309;SDS011;39197;53.200;5.792;2023-05-10T08:36:31;8.18;;;5.75;;
53309;SDS011;39197;53.200;5.792;2023-05-10T08:38:57;7.03;;;6.32;;
53309;SDS011;39197;53.200;5.792;2023-05-10T08:41:24;8.10;;;7.32;;
53309;SDS011;39197;53.200;5.792;2023-05-10T08:43:50;8.57;;;5.88;;
53309;SDS011;39197;53.200;5.792;2023-05-10T08:46:18;10.05;;;6.57;;
53309;SDS011;39197;53.200;5.792;2023-05-10T08:48:45;8.40;;;6.43;;
53309;SDS011;39197;53.200;5.792;2023-05-10T08:51:17;9.40;;;6.60;;
53309;SDS011;39197;53.200;5.792;2023-05-10T08:53:44;8.80;;;7.22;;
53309;SDS011;39197;53.200;5.792;2023-05-10T08:56:11;10.90;;;7.40;;
53309;SDS011;39197;53.200;5.792;2023-05-10T08:58:37;8.18;;;7.32;;
53309;SDS011;39197;53.200;5.792;2023-05-10T09:01:03;8.00;;;7.18;;
53309;SDS011;39197;53.200;5.792;2023-05-10T09:03:30;8.05;;;6.60;;
53309;SDS011;39197;53.200;5.792;2023-05-10T09:05:57;8.27;;;5.85;;
53309;SDS011;39197;53.200;5.792;2023-05-10T09:08:23;8.80;;;7.57;;
53309;SDS011;39197;53.200;5.792;2023-05-10T09:10:53;9.98;;;7.97;;
53309;SDS011;39197;53.200;5.792;2023-05-10T09:13:19;8.18;;;7.00;;
53309;SDS011;39197;53.200;5.792;2023-05-10T09:15:47;9.68;;;7.28;;
53309;SDS011;39197;53.200;5.792;2023-05-10T09:18:13;8.07;;;7.10;;
53309;SDS011;39197;53.200;5.792;2023-05-10T09:20:39;7.32;;;6.60;;
53309;SDS011;39197;53.200;5.792;2023-05-10T09:23:05;7.65;;;6.75;;
53309;SDS011;39197;53.200;5.792;2023-05-10T09:25:31;7.10;;;4.60;;
53309;SDS011;39197;53.200;5.792;2023-05-10T09:28:00;6.22;;;5.43;;
53309;SDS011;39197;53.200;5.792;2023-05-10T09:30:30;6.75;;;6.05;;
53309;SDS011;39197;53.200;5.792;2023-05-10T09:32:56;5.72;;;5.13;;
53309;SDS011;39197;53.200;5.792;2023-05-10T09:35:24;7.70;;;7.00;;
53309;SDS011;39197;53.200;5.792;2023-05-10T09:37:52;6.50;;;5.90;;
53309;SDS011;39197;53.200;5.792;2023-05-10T09:40:22;8.85;;;5.88;;
53309;SDS011;39197;53.200;5.792;2023-05-10T09:43:23;7.63;;;6.35;;
53309;SDS011;39197;53.200;5.792;2023-05-10T09:45:41;7.25;;;6.47;;
53309;SDS011;39197;53.200;5.792;2023-05-10T09:48:07;8.13;;;6.32;;
53309;SDS011;39197;53.200;5.792;2023-05-10T09:50:33;9.05;;;6.75;;
53309;SDS011;39197;53.200;5.792;2023-05-10T09:53:02;7.25;;;6.00;;
53309;SDS011;39197;53.200;5.792;2023-05-10T09:58:09;10.10;;;7.22;;
53309;SDS011;39197;53.200;5.792;2023-05-10T10:00:39;9.18;;;6.28;;
53309;SDS011;39197;53.200;5.792;2023-05-10T10:03:06;10.65;;;7.47;;
53309;SDS011;39197;53.200;5.792;2023-05-10T10:05:40;8.98;;;6.78;;
53309;SDS011;39197;53.200;5.792;2023-05-10T10:08:10;8.13;;;7.18;;
53309;SDS011;39197;53.200;5.792;2023-05-10T10:10:37;10.45;;;8.32;;
53309;SDS011;39197;53.200;5.792;2023-05-10T10:13:05;9.43;;;8.25;;
53309;SDS011;39197;53.200;5.792;2023-05-10T10:15:31;9.20;;;6.75;;
53309;SDS011;39197;53.200;5.792;2023-05-10T10:17:58;8.60;;;7.18;;
53309;SDS011;39197;53.200;5.792;2023-05-10T10:20:24;8.73;;;7.65;;
53309;SDS011;39197;53.200;5.792;2023-05-10T10:22:51;7.75;;;6.85;;
53309;SDS011;39197;53.200;5.792;2023-05-10T10:25:17;10.63;;;7.80;;
53309;SDS011;39197;53.200;5.792;2023-05-10T10:35:30;6.57;;;5.75;;
53309;SDS011;39197;53.200;5.792;2023-05-10T10:37:56;7.00;;;6.30;;
53309;SDS011;39197;53.200;5.792;2023-05-10T10:40:26;6.93;;;6.15;;
53309;SDS011;39197;53.200;5.792;2023-05-10T10:42:55;8.77;;;7.05;;
53309;SDS011;39197;53.200;5.792;2023-05-10T10:45:22;6.82;;;5.88;;
53309;SDS011;39197;53.200;5.792;2023-05-10T10:47:48;6.03;;;5.45;;
53309;SDS011;39197;53.200;5.792;2023-05-10T10:50:18;5.53;;;4.47;;
53309;SDS011;39197;53.200;5.792;2023-05-10T10:52:44;7.65;;;6.07;;
53309;SDS011;39197;53.200;5.792;2023-05-10T10:55:17;6.43;;;4.60;;
53309;SDS011;39197;53.200;5.792;2023-05-10T10:57:45;5.70;;;4.20;;
53309;SDS011;39197;53.200;5.792;2023-05-10T11:08:13;4.70;;;4.13;;
53309;SDS011;39197;53.200;5.792;2023-05-10T11:13:40;5.65;;;5.10;;
53309;SDS011;39197;53.200;5.792;2023-05-10T11:16:20;8.77;;;6.95;;
53309;SDS011;39197;53.200;5.792;2023-05-10T11:18:59;7.38;;;6.07;;
53309;SDS011;39197;53.200;5.792;2023-05-10T11:21:29;6.65;;;6.03;;
53309;SDS011;39197;53.200;5.792;2023-05-10T11:23:56;7.13;;;6.22;;
53309;SDS011;39197;53.200;5.792;2023-05-10T11:26:23;8.65;;;5.28;;
53309;SDS011;39197;53.200;5.792;2023-05-10T11:28:52;6.13;;;5.55;;
53309;SDS011;39197;53.200;5.792;2023-05-10T11:31:22;6.85;;;6.20;;
53309;SDS011;39197;53.200;5.792;2023-05-10T11:33:48;9.90;;;5.82;;
53309;SDS011;39197;53.200;5.792;2023-05-10T11:36:16;6.05;;;5.50;;
53309;SDS011;39197;53.200;5.792;2023-05-10T11:38:44;6.05;;;5.55;;
53309;SDS011;39197;53.200;5.792;2023-05-10T11:41:10;5.50;;;5.00;;
53309;SDS011;39197;53.200;5.792;2023-05-10T11:43:40;6.15;;;5.55;;
53309;SDS011;39197;53.200;5.792;2023-05-10T11:46:11;7.40;;;6.72;;
53309;SDS011;39197;53.200;5.792;2023-05-10T11:48:41;7.05;;;6.35;;
53309;SDS011;39197;53.200;5.792;2023-05-10T11:51:08;8.15;;;7.35;;
53309;SDS011;39197;53.200;5.792;2023-05-10T11:53:34;7.15;;;6.45;;
53309;SDS011;39197;53.200;5.792;2023-05-10T11:56:07;8.68;;;7.82;;
53309;SDS011;39197;53.200;5.792;2023-05-10T11:58:34;9.25;;;8.40;;
53309;SDS011;39197;53.200;5.792;2023-05-10T12:01:01;9.18;;;8.27;;
53309;SDS011;39197;53.200;5.792;2023-05-10T12:03:28;8.95;;;8.07;;
53309;SDS011;39197;53.200;5.792;2023-05-10T12:05:55;10.30;;;9.30;;
53309;SDS011;39197;53.200;5.792;2023-05-10T12:08:22;10.82;;;9.27;;
53309;SDS011;39197;53.200;5.792;2023-05-10T12:10:53;10.43;;;9.38;;
53309;SDS011;39197;53.200;5.792;2023-05-10T12:13:28;9.38;;;8.38;;
53309;SDS011;39197;53.200;5.792;2023-05-10T12:15:57;7.40;;;6.70;;
53309;SDS011;39197;53.200;5.792;2023-05-10T12:18:23;8.02;;;7.28;;
53309;SDS011;39197;53.200;5.792;2023-05-10T12:20:52;7.38;;;6.53;;
53309;SDS011;39197;53.200;5.792;2023-05-10T12:23:21;8.95;;;7.15;;
53309;SDS011;39197;53.200;5.792;2023-05-10T12:25:46;12.05;;;9.80;;
53309;SDS011;39197;53.200;5.792;2023-05-10T12:28:12;11.38;;;7.93;;
53309;SDS011;39197;53.200;5.792;2023-05-10T12:30:38;7.38;;;6.00;;
53309;SDS011;39197;53.200;5.792;2023-05-10T12:33:10;8.70;;;6.43;;
53309;SDS011;39197;53.200;5.792;2023-05-10T12:35:47;7.97;;;7.00;;
53309;SDS011;39197;53.200;5.792;2023-05-10T12:38:25;7.78;;;5.85;;
53309;SDS011;39197;53.200;5.792;2023-05-10T12:40:51;7.15;;;6.45;;
53309;SDS011;39197;53.200;5.792;2023-05-10T12:43:16;6.70;;;5.45;;
53309;SDS011;39197;53.200;5.792;2023-05-10T12:45:42;6.47;;;5.05;;
53309;SDS011;39197;53.200;5.792;2023-05-10T12:48:12;8.48;;;7.60;;
53309;SDS011;39197;53.200;5.792;2023-05-10T12:50:38;6.80;;;5.43;;
53309;SDS011;39197;53.200;5.792;2023-05-10T12:53:04;6.75;;;5.75;;
53309;SDS011;39197;53.200;5.792;2023-05-10T12:55:29;7.20;;;5.57;;
53309;SDS011;39197;53.200;5.792;2023-05-10T12:57:55;7.10;;;6.40;;
53309;SDS011;39197;53.200;5.792;2023-05-10T13:00:20;9.05;;;5.95;;
53309;SDS011;39197;53.200;5.792;2023-05-10T13:02:46;9.77;;;5.57;;
53309;SDS011;39197;53.200;5.792;2023-05-10T13:05:12;7.50;;;5.80;;
53309;SDS011;39197;53.200;5.792;2023-05-10T13:07:38;5.30;;;3.92;;
53309;SDS011;39197;53.200;5.792;2023-05-10T13:10:04;6.47;;;5.68;;
53309;SDS011;39197;53.200;5.792;2023-05-10T13:12:31;7.47;;;6.07;;
53309;SDS011;39197;53.200;5.792;2023-05-10T13:14:57;11.98;;;7.00;;
53309;SDS011;39197;53.200;5.792;2023-05-10T13:17:22;7.50;;;6.45;;
53309;SDS011;39197;53.200;5.792;2023-05-10T13:19:48;6.80;;;6.00;;
53309;SDS011;39197;53.200;5.792;2023-05-10T13:22:13;7.95;;;6.18;;
53309;SDS011;39197;53.200;5.792;2023-05-10T13:24:39;7.95;;;6.43;;
53309;SDS011;39197;53.200;5.792;2023-05-10T13:27:05;11.23;;;10.13;;
53309;SDS011;39197;53.200;5.792;2023-05-10T13:29:30;11.15;;;9.95;;
53309;SDS011;39197;53.200;5.792;2023-05-10T13:31:56;5.90;;;5.13;;
53309;SDS011;39197;53.200;5.792;2023-05-10T13:34:24;6.63;;;6.03;;
53309;SDS011;39197;53.200;5.792;2023-05-10T13:36:49;4.28;;;3.80;;
53309;SDS011;39197;53.200;5.792;2023-05-10T13:39:15;5.80;;;5.25;;
53309;SDS011;39197;53.200;5.792;2023-05-10T13:41:41;5.70;;;5.07;;
53309;SDS011;39197;53.200;5.792;2023-05-10T13:44:07;7.40;;;6.80;;
53309;SDS011;39197;53.200;5.792;2023-05-10T13:46:33;7.60;;;6.72;;
53309;SDS011;39197;53.200;5.792;2023-05-10T13:48:58;5.20;;;4.80;;
53309;SDS011;39197;53.200;5.792;2023-05-10T13:51:24;7.13;;;6.43;;
53309;SDS011;39197;53.200;5.792;2023-05-10T13:53:49;4.88;;;4.47;;
53309;SDS011;39197;53.200;5.792;2023-05-10T13:56:15;4.78;;;4.38;;
53309;SDS011;39197;53.200;5.792;2023-05-10T13:58:41;4.05;;;3.55;;
53309;SDS011;39197;53.200;5.792;2023-05-10T14:01:06;4.00;;;3.60;;
53309;SDS011;39197;53.200;5.792;2023-05-10T14:03:32;4.38;;;4.05;;
53309;SDS011;39197;53.200;5.792;2023-05-10T14:05:58;5.32;;;4.90;;
53309;SDS011;39197;53.200;5.792;2023-05-10T14:08:23;7.53;;;6.90;;
53309;SDS011;39197;53.200;5.792;2023-05-10T14:10:49;5.40;;;4.97;;
53309;SDS011;39197;53.200;5.792;2023-05-10T14:13:15;6.47;;;5.93;;
53309;SDS011;39197;53.200;5.792;2023-05-10T14:15:41;4.43;;;4.03;;
53309;SDS011;39197;53.200;5.792;2023-05-10T14:18:06;7.45;;;6.72;;
53309;SDS011;39197;53.200;5.792;2023-05-10T14:20:32;3.20;;;2.90;;
53309;SDS011;39197;53.200;5.792;2023-05-10T14:22:59;9.25;;;7.72;;
53309;SDS011;39197;53.200;5.792;2023-05-10T14:25:25;6.13;;;5.53;;
53309;SDS011;39197;53.200;5.792;2023-05-10T14:27:51;9.27;;;8.48;;
53309;SDS011;39197;53.200;5.792;2023-05-10T14:30:19;3.25;;;2.95;;
53309;SDS011;39197;53.200;5.792;2023-05-10T14:32:45;2.50;;;2.30;;
53309;SDS011;39197;53.200;5.792;2023-05-10T14:35:11;3.03;;;2.83;;
53309;SDS011;39197;53.200;5.792;2023-05-10T14:37:38;5.57;;;5.10;;
53309;SDS011;39197;53.200;5.792;2023-05-10T14:40:03;4.57;;;4.18;;
53309;SDS011;39197;53.200;5.792;2023-05-10T14:42:29;4.47;;;3.65;;
53309;SDS011;39197;53.200;5.792;2023-05-10T14:44:57;3.90;;;3.55;;
53309;SDS011;39197;53.200;5.792;2023-05-10T14:47:22;4.47;;;4.07;;
53309;SDS011;39197;53.200;5.792;2023-05-10T14:49:48;4.28;;;3.88;;
53309;SDS011;39197;53.200;5.792;2023-05-10T14:52:14;4.65;;;4.25;;
53309;SDS011;39197;53.200;5.792;2023-05-10T14:54:40;7.90;;;6.72;;
53309;SDS011;39197;53.200;5.792;2023-05-10T14:57:06;6.38;;;5.78;;
53309;SDS011;39197;53.200;5.792;2023-05-10T14:59:32;4.43;;;4.03;;
53309;SDS011;39197;53.200;5.792;2023-05-10T15:01:57;4.05;;;3.75;;
53309;SDS011;39197;53.200;5.792;2023-05-10T15:04:23;4.90;;;4.50;;
53309;SDS011;39197;53.200;5.792;2023-05-10T15:06:49;4.55;;;4.15;;
53309;SDS011;39197;53.200;5.792;2023-05-10T15:09:14;5.93;;;5.15;;
53309;SDS011;39197;53.200;5.792;2023-05-10T15:11:41;5.40;;;5.00;;
53309;SDS011;39197;53.200;5.792;2023-05-10T15:14:07;5.43;;;4.93;;
53309;SDS011;39197;53.200;5.792;2023-05-10T15:16:32;5.32;;;4.70;;
53309;SDS011;39197;53.200;5.792;2023-05-10T15:18:58;4.95;;;4.50;;
53309;SDS011;39197;53.200;5.792;2023-05-10T15:21:23;5.05;;;4.65;;